Time,TemperatureF,DewpointF,PressureIn,WindDirection,WindDirectionDegrees,WindSpeedMPH,WindSpeedGustMPH,Humidity,HourlyPrecipIn,Conditions,Clouds,dailyrainin,SoftwareType,DateUTC
2013-01-19 00:03:00,65.0,59.0,30.17,WSW,257,0.0,2.0,82,0.00,,,0.00,,2013-01-19 05:03:00,
2013-01-19 00:12:00,65.0,59.0,30.17,WSW,257,0.0,2.0,82,0.00,,,0.00,,2013-01-19 05:12:00,
2013-01-19 00:23:00,65.0,59.0,30.16,West,260,0.0,0.0,82,0.00,,,0.00,,2013-01-19 05:23:00,
2013-01-19 00:33:00,66.0,60.0,26.43,WSW,257,0.0,0.0,81,0.00,,,0.00,,2013-01-19 05:33:00,
2013-01-19 00:43:00,66.0,60.0,26.43,WSW,257,0.0,0.0,81,0.00,,,0.00,,2013-01-19 05:43:00,
2013-01-19 00:53:00,66.0,59.0,30.16,South,177,0.0,1.0,78,0.00,,,0.00,,2013-01-19 05:53:00,
2013-01-19 01:03:00,66.0,59.0,30.15,South,177,0.0,1.0,77,0.00,,,0.00,,2013-01-19 06:03:00,
2013-01-19 01:12:00,66.0,59.0,30.15,South,177,0.0,1.0,77,0.00,,,0.00,,2013-01-19 06:12:00,
2013-01-19 01:22:00,67.0,59.0,30.16,ESE,110,0.0,0.0,75,0.00,,,0.00,,2013-01-19 06:22:00,
2013-01-19 01:33:00,67.0,59.0,30.13,North,352,0.0,0.0,75,0.00,,,0.00,,2013-01-19 06:33:00,
2013-01-19 01:43:00,67.0,59.0,30.13,North,352,0.0,0.0,75,0.00,,,0.00,,2013-01-19 06:43:00,
2013-01-19 01:53:00,67.0,59.0,30.15,North,351,0.0,0.0,75,0.00,,,0.00,,2013-01-19 06:53:00,
2013-01-19 02:02:00,67.0,59.0,30.15,North,355,0.0,1.0,76,0.00,,,0.00,,2013-01-19 07:02:00,
2013-01-19 02:12:00,67.0,59.0,30.15,North,355,0.0,1.0,76,0.00,,,0.00,,2013-01-19 07:12:00,
2013-01-19 02:22:00,67.0,59.0,30.14,North,354,0.0,0.0,75,0.00,,,0.00,,2013-01-19 07:22:00,
2013-01-19 02:33:00,67.0,59.0,30.14,North,355,0.0,4.0,76,0.00,,,0.00,,2013-01-19 07:33:00,
2013-01-19 02:43:00,67.0,59.0,30.14,North,355,0.0,4.0,76,0.00,,,0.00,,2013-01-19 07:43:00,
2013-01-19 02:53:00,67.0,59.0,30.13,North,356,0.0,0.0,75,0.00,,,0.00,,2013-01-19 07:53:00,
2013-01-19 03:02:00,67.0,59.0,30.13,NNE,18,0.0,0.0,75,0.00,,,0.00,,2013-01-19 08:02:00,
2013-01-19 03:12:00,67.0,59.0,30.13,NNE,18,0.0,0.0,75,0.00,,,0.00,,2013-01-19 08:12:00,
2013-01-19 03:22:00,67.0,59.0,30.13,NNE,25,0.0,2.0,76,0.00,,,0.00,,2013-01-19 08:22:00,
2013-01-19 03:32:00,67.0,59.0,30.13,NNE,27,0.0,7.0,75,0.00,,,0.00,,2013-01-19 08:32:00,
2013-01-19 03:43:00,67.0,59.0,30.13,NNE,27,0.0,7.0,75,0.00,,,0.00,,2013-01-19 08:43:00,
2013-01-19 03:53:00,67.0,60.0,30.12,NNE,23,0.0,0.0,77,0.00,,,0.00,,2013-01-19 08:53:00,
2013-01-19 04:02:00,67.0,59.0,30.12,NNE,21,0.0,0.0,76,0.00,,,0.00,,2013-01-19 09:02:00,
2013-01-19 04:12:00,67.0,59.0,30.12,NNE,21,0.0,0.0,76,0.00,,,0.00,,2013-01-19 09:12:00,
2013-01-19 04:23:00,67.0,59.0,30.12,NNE,26,0.0,0.0,75,0.00,,,0.00,,2013-01-19 09:23:00,
2013-01-19 04:33:00,67.0,59.0,30.12,NNE,30,0.0,2.0,75,0.00,,,0.00,,2013-01-19 09:33:00,
2013-01-19 04:42:00,67.0,59.0,30.12,NNE,30,0.0,2.0,75,0.00,,,0.00,,2013-01-19 09:42:00,
2013-01-19 04:53:00,67.0,60.0,30.13,NNE,29,0.0,0.0,77,0.00,,,0.00,,2013-01-19 09:53:00,
2013-01-19 05:02:00,67.0,60.0,30.12,NNE,25,0.0,0.0,78,0.00,,,0.00,,2013-01-19 10:02:00,
2013-01-19 05:12:00,67.0,60.0,30.12,NNE,25,0.0,0.0,78,0.00,,,0.00,,2013-01-19 10:12:00,
2013-01-19 05:22:00,67.0,59.0,30.13,NNE,23,0.0,2.0,76,0.00,,,0.00,,2013-01-19 10:22:00,
2013-01-19 05:32:00,67.0,59.0,30.13,NNE,21,0.0,0.0,75,0.00,,,0.00,,2013-01-19 10:32:00,
2013-01-19 05:43:00,67.0,59.0,30.13,NNE,21,0.0,0.0,75,0.00,,,0.00,,2013-01-19 10:43:00,
2013-01-19 05:53:00,67.0,60.0,30.13,NNE,25,0.0,3.0,78,0.00,,,0.00,,2013-01-19 10:53:00,
2013-01-19 06:03:00,67.0,61.0,30.14,NNE,30,0.0,4.0,81,0.00,,,0.00,,2013-01-19 11:03:00,
2013-01-19 06:12:00,67.0,61.0,30.14,NNE,30,0.0,4.0,81,0.00,,,0.00,,2013-01-19 11:12:00,
2013-01-19 07:48:00,67.0,62.0,30.16,NNE,23,1.0,5.0,85,0.00,,,0.00,,2013-01-19 12:48:00,
2013-01-19 07:53:00,67.0,63.0,30.16,NNE,21,0.0,1.0,86,0.00,,,0.00,,2013-01-19 12:53:00,
2013-01-19 08:03:00,67.0,63.0,30.16,NNE,21,0.0,0.0,87,0.00,,,0.00,,2013-01-19 13:03:00,
2013-01-19 08:13:00,67.0,63.0,30.16,NNE,21,0.0,0.0,87,0.00,,,0.00,,2013-01-19 13:13:00,
2013-01-19 08:22:00,67.0,64.0,30.16,NE,34,0.0,0.0,89,0.00,,,0.00,,2013-01-19 13:22:00,
2013-01-19 08:33:00,67.0,64.0,30.17,NNE,29,8.0,13.0,89,0.00,,,0.00,,2013-01-19 13:33:00,
2013-01-19 08:43:00,67.0,64.0,30.17,NNE,29,8.0,13.0,89,0.00,,,0.00,,2013-01-19 13:43:00,
2013-01-19 08:53:00,67.0,64.0,30.18,NNE,25,5.0,14.0,89,0.00,,,0.00,,2013-01-19 13:53:00,
2013-01-19 09:03:00,67.0,64.0,30.19,NNE,32,0.0,10.0,89,0.00,,,0.00,,2013-01-19 14:03:00,
2013-01-19 09:12:00,67.0,64.0,30.19,NNE,32,0.0,10.0,89,0.00,,,0.00,,2013-01-19 14:12:00,
2013-01-19 09:23:00,67.0,64.0,30.19,NE,54,0.0,0.0,89,0.00,,,0.00,,2013-01-19 14:23:00,
2013-01-19 09:34:00,67.0,63.0,30.19,NE,37,0.0,0.0,88,0.00,,,0.00,,2013-01-19 14:34:00,
2013-01-19 09:43:00,67.0,63.0,30.19,NE,37,0.0,0.0,88,0.00,,,0.00,,2013-01-19 14:43:00,
2013-01-19 09:53:00,68.0,64.0,30.19,NNE,22,0.0,0.0,86,0.00,,,0.00,,2013-01-19 14:53:00,
2013-01-19 10:03:00,68.0,64.0,30.20,NE,34,0.0,0.0,86,0.00,,,0.00,,2013-01-19 15:03:00,
2013-01-19 10:13:00,68.0,64.0,30.20,NE,34,0.0,0.0,86,0.00,,,0.00,,2013-01-19 15:13:00,
2013-01-19 10:23:00,68.0,63.0,30.20,NNE,16,0.0,0.0,85,0.00,,,0.00,,2013-01-19 15:23:00,
2013-01-19 10:33:00,69.0,64.0,30.20,NNE,23,0.0,0.0,83,0.00,,,0.00,,2013-01-19 15:33:00,
2013-01-19 10:43:00,69.0,64.0,30.20,NNE,23,0.0,0.0,83,0.00,,,0.00,,2013-01-19 15:43:00,
2013-01-19 10:53:00,69.0,64.0,30.20,NE,35,0.0,0.0,84,0.00,,,0.00,,2013-01-19 15:53:00,
2013-01-19 11:03:00,69.0,64.0,30.20,NNE,24,0.0,1.0,85,0.00,,,0.00,,2013-01-19 16:03:00,
2013-01-19 11:13:00,69.0,64.0,30.20,NNE,24,0.0,1.0,85,0.00,,,0.00,,2013-01-19 16:13:00,
2013-01-19 11:23:00,70.0,64.0,30.19,NE,45,0.0,4.0,81,0.00,,,0.00,,2013-01-19 16:23:00,
2013-01-19 11:33:00,71.0,65.0,30.19,NE,50,0.0,0.0,80,0.00,,,0.00,,2013-01-19 16:33:00,
2013-01-19 11:43:00,71.0,65.0,30.19,NE,50,0.0,0.0,80,0.00,,,0.00,,2013-01-19 16:43:00,
2013-01-19 11:54:00,72.0,64.0,30.18,ENE,59,0.0,5.0,77,0.00,,,0.00,,2013-01-19 16:54:00,
2013-01-19 12:03:00,73.0,65.0,30.17,ENE,63,0.0,5.0,77,0.00,,,0.00,,2013-01-19 17:03:00,
2013-01-19 12:20:00,73.0,65.0,30.17,ENE,63,0.0,5.0,77,0.00,,,0.00,,2013-01-19 17:20:00,
2013-01-19 12:29:00,72.0,64.0,30.17,North,11,0.0,2.0,75,0.00,,,0.00,,2013-01-19 17:29:00,
2013-01-19 12:35:00,72.0,64.0,30.16,NE,54,0.0,3.0,76,0.00,,,0.00,,2013-01-19 17:35:00,
2013-01-19 12:48:00,72.0,64.0,30.16,NE,54,0.0,3.0,76,0.00,,,0.00,,2013-01-19 17:48:00,
2013-01-19 12:55:00,72.0,64.0,30.15,North,9,0.0,5.0,75,0.00,,,0.00,,2013-01-19 17:55:00,
2013-01-19 13:12:00,72.0,64.0,30.15,NNE,25,0.0,6.0,75,0.00,,,0.00,,2013-01-19 18:12:00,
2013-01-19 13:28:00,72.0,63.0,30.14,North,2,0.0,10.0,74,0.00,,,0.00,,2013-01-19 18:28:00,
2013-01-19 13:35:00,72.0,63.0,30.13,North,11,0.0,6.0,74,0.00,,,0.00,,2013-01-19 18:35:00,
2013-01-19 13:45:00,72.0,63.0,30.13,North,11,0.0,6.0,74,0.00,,,0.00,,2013-01-19 18:45:00,
2013-01-19 14:02:00,73.0,63.0,30.11,North,4,1.0,5.0,72,0.00,,,0.00,,2013-01-19 19:02:00,
2013-01-19 14:09:00,73.0,63.0,30.11,North,4,0.0,5.0,72,0.00,,,0.00,,2013-01-19 19:09:00,
2013-01-19 14:20:00,73.0,63.0,30.11,North,4,0.0,5.0,72,0.00,,,0.00,,2013-01-19 19:20:00,
2013-01-19 14:30:00,73.0,63.0,30.09,NNE,18,2.0,5.0,72,0.00,,,0.00,,2013-01-19 19:30:00,
2013-01-19 14:39:00,73.0,64.0,30.09,NNE,15,0.0,5.0,73,0.00,,,0.00,,2013-01-19 19:39:00,
2013-01-19 14:47:00,73.0,64.0,30.09,NNE,15,0.0,5.0,73,0.00,,,0.00,,2013-01-19 19:47:00,
2013-01-19 14:59:00,73.0,63.0,30.09,NNE,13,0.0,7.0,71,0.00,,,0.00,,2013-01-19 19:59:00,
2013-01-19 15:10:00,74.0,64.0,30.09,North,11,0.0,2.0,72,0.00,,,0.00,,2013-01-19 20:10:00,
2013-01-19 15:19:00,74.0,64.0,30.09,North,11,0.0,2.0,72,0.00,,,0.00,,2013-01-19 20:19:00,
2013-01-19 15:25:00,73.0,64.0,30.09,North,360,0.0,3.0,74,0.00,,,0.00,,2013-01-19 20:25:00,
2013-01-19 15:38:00,73.0,64.0,30.09,North,360,0.0,4.0,73,0.00,,,0.00,,2013-01-19 20:38:00,
2013-01-19 15:48:00,73.0,64.0,30.09,North,360,0.0,4.0,73,0.00,,,0.00,,2013-01-19 20:48:00,
2013-01-19 16:07:00,72.0,63.0,30.09,North,360,0.0,3.0,73,0.00,,,0.00,,2013-01-19 21:07:00,
2013-01-19 16:14:00,72.0,63.0,30.09,North,360,0.0,3.0,73,0.00,,,0.00,,2013-01-19 21:14:00,
2013-01-19 16:27:00,73.0,63.0,30.09,North,360,0.0,1.0,71,0.00,,,0.00,,2013-01-19 21:27:00,
2013-01-19 16:45:00,73.0,63.0,30.09,North,359,0.0,4.0,72,0.00,,,0.00,,2013-01-19 21:45:00,
2013-01-19 16:51:00,73.0,63.0,30.09,North,359,0.0,4.0,72,0.00,,,0.00,,2013-01-19 21:51:00,
2013-01-19 17:00:00,73.0,63.0,30.08,NNW,348,1.0,6.0,72,0.00,,,0.00,,2013-01-19 22:00:00,
2013-01-19 17:15:00,73.0,64.0,30.09,NNW,336,0.0,3.0,73,0.00,,,0.00,,2013-01-19 22:15:00,
2013-01-19 17:27:00,73.0,64.0,30.09,NNW,336,0.0,1.0,73,0.00,,,0.00,,2013-01-19 22:27:00,
2013-01-19 17:58:00,72.0,64.0,30.09,NNW,335,0.0,0.0,76,0.00,,,0.00,,2013-01-19 22:58:00,
2013-01-19 18:13:00,72.0,64.0,30.09,NNW,335,0.0,0.0,77,0.00,,,0.00,,2013-01-19 23:13:00,
2013-01-19 18:26:00,71.0,64.0,30.09,NNW,335,0.0,1.0,78,0.00,,,0.00,,2013-01-19 23:26:00,
2013-01-19 18:34:00,71.0,64.0,30.09,NNW,335,0.0,2.0,78,0.00,,,0.00,,2013-01-19 23:34:00,
2013-01-19 18:46:00,71.0,64.0,30.09,NNW,335,0.0,2.0,78,0.00,,,0.00,,2013-01-19 23:46:00,
2013-01-19 19:08:00,71.0,64.0,30.10,NNW,337,0.0,2.0,79,0.00,,,0.00,,2013-01-20 00:08:00,
2013-01-19 19:15:00,71.0,64.0,30.11,NNW,339,1.0,2.0,79,0.00,,,0.00,,2013-01-20 00:15:00,
2013-01-19 19:25:00,71.0,65.0,30.11,NNW,347,0.0,4.0,80,0.00,,,0.00,,2013-01-20 00:25:00,
2013-01-19 19:35:00,71.0,65.0,30.11,NNW,348,0.0,3.0,80,0.00,,,0.00,,2013-01-20 00:35:00,
2013-01-19 19:46:00,71.0,65.0,30.11,NNW,348,0.0,3.0,80,0.00,,,0.00,,2013-01-20 00:46:00,
2013-01-19 19:58:00,71.0,65.0,30.11,NNW,348,0.0,1.0,81,0.00,,,0.00,,2013-01-20 00:58:00,
2013-01-19 20:04:00,71.0,65.0,30.12,North,349,0.0,3.0,81,0.00,,,0.00,,2013-01-20 01:04:00,
2013-01-19 20:20:00,71.0,65.0,30.12,North,349,0.0,3.0,81,0.00,,,0.00,,2013-01-20 01:20:00,
2013-01-19 20:27:00,71.0,65.0,30.12,North,350,0.0,2.0,81,0.00,,,0.00,,2013-01-20 01:27:00,
2013-01-19 20:37:00,71.0,65.0,26.41,North,350,0.0,1.0,81,0.00,,,0.00,,2013-01-20 01:37:00,
2013-01-19 20:48:00,71.0,65.0,26.41,North,350,0.0,1.0,81,0.00,,,0.00,,2013-01-20 01:48:00,
2013-01-19 21:04:00,71.0,65.0,31.17,North,350,0.0,0.0,82,0.00,,,0.00,,2013-01-20 02:04:00,
2013-01-19 21:15:00,71.0,65.0,31.17,North,350,0.0,1.0,82,0.00,,,0.00,,2013-01-20 02:15:00,
2013-01-19 21:27:00,70.0,65.0,30.13,North,350,0.0,3.0,83,0.00,,,0.00,,2013-01-20 02:27:00,
2013-01-19 21:36:00,70.0,65.0,30.13,North,350,0.0,0.0,83,0.00,,,0.00,,2013-01-20 02:36:00,
2013-01-19 21:45:00,70.0,65.0,30.13,North,350,0.0,0.0,83,0.00,,,0.00,,2013-01-20 02:45:00,
2013-01-19 22:08:00,70.0,65.0,30.13,North,350,0.0,2.0,85,0.00,,,0.00,,2013-01-20 03:08:00,
2013-01-19 22:15:00,70.0,65.0,30.13,North,350,0.0,2.0,85,0.00,,,0.00,,2013-01-20 03:15:00,
2013-01-19 22:38:00,70.0,66.0,30.12,North,353,0.0,1.0,86,0.00,,,0.00,,2013-01-20 03:38:00,
2013-01-19 22:45:00,70.0,66.0,30.12,North,353,0.0,1.0,86,0.00,,,0.00,,2013-01-20 03:45:00,
2013-01-19 22:58:00,70.0,66.0,30.11,North,360,0.0,1.0,87,0.00,,,0.00,,2013-01-20 03:58:00,
2013-01-19 23:05:00,70.0,66.0,30.11,NE,38,0.0,3.0,87,0.00,,,0.00,,2013-01-20 04:05:00,
2013-01-19 23:15:00,70.0,66.0,30.11,NE,38,0.0,3.0,87,0.00,,,0.00,,2013-01-20 04:15:00,
2013-01-19 23:27:00,70.0,66.0,30.11,ENE,67,0.0,3.0,88,0.00,,,0.00,,2013-01-20 04:27:00,
2013-01-19 23:36:00,70.0,67.0,30.10,ENE,63,1.0,3.0,89,0.00,,,0.00,,2013-01-20 04:36:00,
2013-01-19 23:44:00,70.0,67.0,30.10,ENE,63,1.0,3.0,89,0.00,,,0.00,,2013-01-20 04:44:00,
2013-01-19 23:58:00,70.0,67.0,30.10,ENE,58,1.0,5.0,89,0.00,,,0.00,,2013-01-20 04:58:00,